Sete Barras, Brazil
Current Conditions -  °F | °C
As of 4:00 PM on Thursday 23 Oct 2014 (Local Time) from SBSP Reporting Station
Clear Clear  
Wind Chill: 73°   Ceiling: Unl
Heat Index: 73°   Visibility: 6mi
Dew Point: 59°   Wind: 16mph
Humidity: 61%   Direction: 180°S
Pressure: 30.09"   Gusts: NA
Location:  24.38°S, 47.93°W
Report Text: SBSP 231800Z 18014KT CAVOK 23/15 Q1019
Loading
Personal Weather Stations






























Interactive Weather Map
Tropical Storm Tracking
New forecast layout! Learn more

10-Day Weather Forecast

Advertisements
Track Severe Weather on mobile